logo
Rechercher aéroport 
image banner adimage banner adimage banner ad
image banner ad

KNTD - Point Mugu Nas (Naval Base Ventura Co)

Situé à Oxnard, United States

ICAO - NTD, IATA -

Données fournies par Airmate  

Information générale

Coordonnées: N34°7'9" W119°7'11"
Élévation : 13 feet MSL.
Variation magnétique : 12° East
Voir autres Aéroports à California

Données opérationnelles

Special qualification required
Heure actuelle UTC:
Heure actuelle locale:
Météo
METAR: KNTD 050355Z 16005KT 6SM -RA BR FEW007 BKN016 BKN025 15/15 A3008 RMK AO2 RAE04B53 SLP187 P0000 T01500150 $
TAF: TAF KNTD 0423/0523 22008KT 9999 FEW005 BKN010 BKN030 QNH2999INS FM050500 VRB06KT 9999 SCT030 QNH3001INS FM050900 VRB05KT 8000 BR BKN010 BKN025 QNH3005INS TEMPO 0509/0515 4800 BR OVC008 FM051700 VRB06KT 9999 SCT012 BKN030 QNH3002INS FM052100 32010KT 9999 FEW015 SCT040 SCT180 QNH3008INS T12/0513Z T18/0522Z FS30205
Voir NOTAMs / SUP AIP / TFR affectant cet aéroport [VIEW]
Fréquences de communication: [VIEW]

Pistes:

Identifiant RWYQFULongueur (ft)Largeur (ft)SurfaceLDA (ft)
0344°11102200ASPH
21224°11102200ASPH
09105°5502200ASPH
27285°5502200ASPH

Coordonnées de l'aéroport

Adresse: Oxnard United States

Vue satellite de KNTD